Time;durP1;ratioP1;P1;durP2;ratioP2;P2;SDS_P1;SDS_P2;PMS_P1;PMS_P2;Temp;Humidity;BMP_temperature;BMP_pressure;BME280_temperature;BME280_humidity;BME280_pressure;Samples;Min_cycle;Max_cycle;Signal;HPM_P1;HPM_P2
2022/06/04 00:00:50;;;;;;;13.52;5.78;;;11.70;99.90;;;;;;5112087;28;20047;-62
2022/06/04 00:03:17;;;;;;;11.57;5.90;;;11.70;99.90;;;;;;5093882;28;20058;-62
2022/06/04 00:05:49;;;;;;;12.02;6.28;;;11.70;99.90;;;;;;5111990;28;20047;-61
2022/06/04 00:08:15;;;;;;;11.40;6.80;;;11.70;99.90;;;;;;5111830;28;20136;-61
2022/06/04 00:16:15;;;;;;;;;;;11.60;99.90;;;;;;5112034;28;20107;-62
2022/06/04 00:18:42;;;;;;;15.10;8.07;;;11.60;99.90;;;;;;5111834;28;19923;-62
2022/06/04 00:21:09;;;;;;;14.50;7.85;;;11.60;99.90;;;;;;5111558;28;20426;-64
2022/06/04 00:23:35;;;;;;;13.00;8.13;;;11.60;99.90;;;;;;5111756;28;20162;-62
2022/06/04 00:26:03;;;;;;;16.25;8.07;;;11.60;99.90;;;;;;5093526;28;20051;-63
2022/06/04 00:28:29;;;;;;;17.15;8.32;;;11.60;99.90;;;;;;5093423;28;20063;-64
2022/06/04 00:30:57;;;;;;;14.95;8.85;;;11.60;99.90;;;;;;5111064;28;20377;-66
2022/06/04 00:33:23;;;;;;;14.23;8.23;;;11.50;99.90;;;;;;5111690;28;20044;-61
2022/06/04 00:35:52;;;;;;;13.45;7.93;;;11.50;99.90;;;;;;5093161;28;20625;-63
2022/06/04 00:38:21;;;;;;;17.17;8.68;;;11.50;99.90;;;;;;5111329;28;20043;-62
2022/06/04 00:41:17;;;;;;;13.15;7.57;;;11.50;99.90;;;;;;5060375;28;20055;-62
2022/06/04 00:44:01;;;;;;;12.02;7.78;;;11.50;99.90;;;;;;5097139;28;20048;-64
2022/06/04 00:46:42;;;;;;;12.52;7.32;;;11.40;99.90;;;;;;5115799;28;20089;-62
2022/06/04 00:49:08;;;;;;;11.23;6.75;;;11.40;99.90;;;;;;5115221;28;20047;-61
2022/06/04 00:51:35;;;;;;;10.95;7.95;;;11.40;99.90;;;;;;5115528;28;20130;-62
2022/06/04 00:54:01;;;;;;;14.95;8.07;;;11.40;99.90;;;;;;5097148;28;20052;-63
2022/06/04 00:56:37;;;;;;;14.95;7.10;;;11.40;99.90;;;;;;5115421;28;20127;-63
2022/06/04 00:59:41;;;;;;;14.18;7.28;;;11.40;99.90;;;;;;5115134;28;20051;-62
2022/06/04 01:02:26;;;;;;;15.10;7.63;;;11.30;99.90;;;;;;5067222;28;20138;-62
2022/06/04 01:05:14;;;;;;;14.30;7.57;;;11.30;99.90;;;;;;5115359;28;20497;-64
2022/06/04 01:08:10;;;;;;;18.02;7.20;;;11.30;99.90;;;;;;5115521;28;20068;-64
2022/06/04 01:10:48;;;;;;;14.20;7.90;;;11.30;99.90;;;;;;5114754;28;20473;-62
2022/06/04 01:13:30;;;;;;;13.48;7.30;;;11.20;99.90;;;;;;5115048;28;20059;-62
2022/06/04 01:16:12;;;;;;;15.15;7.35;;;11.20;99.90;;;;;;5115373;28;20054;-61
2022/06/04 01:18:48;;;;;;;14.18;6.85;;;11.20;99.90;;;;;;5115336;28;20067;-62
2022/06/04 01:21:23;;;;;;;14.65;7.15;;;11.20;99.90;;;;;;5096808;28;20079;-62
2022/06/04 01:24:36;;;;;;;11.25;7.10;;;11.20;99.90;;;;;;5115199;28;20054;-62
2022/06/04 01:27:02;;;;;;;13.00;7.65;;;11.30;99.90;;;;;;5074892;28;20063;-67
2022/06/04 01:29:35;;;;;;;16.02;6.80;;;11.20;99.90;;;;;;5096873;28;20043;-61
2022/06/04 01:32:08;;;;;;;12.43;6.50;;;11.20;99.90;;;;;;5114234;28;20062;-61
2022/06/04 01:35:03;;;;;;;14.10;6.55;;;11.20;99.90;;;;;;5114662;28;20043;-59
2022/06/04 01:37:38;;;;;;;12.68;7.00;;;11.20;99.90;;;;;;5096770;28;20052;-60
2022/06/04 01:42:56;;;;;;;15.38;7.10;;;11.10;99.90;;;;;;5114595;28;20477;-59
2022/06/04 01:45:26;;;;;;;11.60;6.20;;;11.10;99.90;;;;;;5113993;28;20654;-59
2022/06/04 01:47:55;;;;;;;14.45;7.10;;;11.00;99.90;;;;;;5114675;28;20062;-59
2022/06/04 01:50:41;;;;;;;11.02;6.32;;;11.00;99.90;;;;;;5114347;28;20048;-59
2022/06/04 01:53:11;;;;;;;13.50;6.65;;;11.00;99.90;;;;;;5095776;28;20043;-59
2022/06/04 01:55:42;;;;;;;13.60;7.03;;;11.00;99.90;;;;;;5114314;28;20051;-58
2022/06/04 01:58:19;;;;;;;10.75;6.97;;;11.00;99.90;;;;;;5113837;28;20130;-60
2022/06/04 02:00:57;;;;;;;11.85;7.22;;;11.00;99.90;;;;;;5114501;28;20046;-58
2022/06/04 02:03:32;;;;;;;12.63;7.25;;;11.00;99.90;;;;;;5114159;28;20055;-58
2022/06/04 02:06:04;;;;;;;12.30;6.88;;;10.90;99.90;;;;;;5096326;28;20087;-58
2022/06/04 02:08:55;;;;;;;14.00;7.25;;;10.90;99.90;;;;;;5113910;28;20083;-58
2022/06/04 02:11:23;;;;;;;9.77;7.30;;;10.90;99.90;;;;;;5075228;28;20048;-58
2022/06/04 02:13:52;;;;;;;12.40;7.20;;;10.90;99.90;;;;;;5092855;28;20040;-58
2022/06/04 02:16:27;;;;;;;11.43;6.75;;;10.80;99.90;;;;;;5092377;28;20125;-58
2022/06/04 02:18:54;;;;;;;;;;;10.80;99.90;;;;;;5093009;28;20443;-58
2022/06/04 02:21:20;;;;;;;14.10;7.82;;;10.80;99.90;;;;;;5093334;28;19928;-58
2022/06/04 02:23:47;;;;;;;19.15;7.88;;;10.80;99.90;;;;;;5092703;28;20040;-58
2022/06/04 02:26:15;;;;;;;11.15;7.22;;;10.80;99.90;;;;;;5091813;28;20548;-58
2022/06/04 02:28:41;;;;;;;14.10;7.57;;;10.80;99.90;;;;;;5075197;28;20482;-58
2022/06/04 02:31:30;;;;;;;14.52;6.93;;;10.80;99.90;;;;;;5092346;28;20101;-58
2022/06/04 02:34:14;;;;;;;13.00;6.70;;;10.80;99.90;;;;;;5092110;28;20150;-58
2022/06/04 02:36:47;;;;;;;13.50;6.63;;;10.90;99.90;;;;;;5092130;28;20540;-58
2022/06/04 02:39:31;;;;;;;14.35;6.75;;;10.80;99.90;;;;;;5092803;28;20051;-58
2022/06/04 02:42:15;;;;;;;12.77;6.22;;;10.80;99.90;;;;;;5093017;28;20233;-58
2022/06/04 02:45:14;;;;;;;11.50;6.35;;;10.80;99.90;;;;;;5093175;28;20101;-58
2022/06/04 02:48:01;;;;;;;12.57;6.30;;;10.80;99.90;;;;;;5091867;28;20055;-59
2022/06/04 02:50:32;;;;;;;8.85;5.97;;;10.80;99.90;;;;;;5091655;28;20123;-58
2022/06/04 02:53:01;;;;;;;9.35;6.10;;;10.90;99.90;;;;;;5092858;28;20138;-58
2022/06/04 02:55:31;;;;;;;9.13;6.30;;;10.80;99.90;;;;;;5091107;28;20051;-59
2022/06/04 02:58:01;;;;;;;10.93;6.72;;;10.90;99.90;;;;;;5091561;28;20060;-58
2022/06/04 03:00:29;;;;;;;11.63;7.10;;;10.90;99.90;;;;;;5091147;28;20126;-59
2022/06/04 03:02:54;;;;;;;13.43;7.28;;;10.90;99.90;;;;;;5092595;28;20091;-58
2022/06/04 03:05:24;;;;;;;10.02;6.50;;;10.90;99.90;;;;;;5091433;28;20048;-59
2022/06/04 03:07:51;;;;;;;11.55;6.90;;;10.90;99.90;;;;;;5092367;28;20040;-58
2022/06/04 03:10:25;;;;;;;12.27;6.95;;;10.90;99.90;;;;;;5093087;28;20070;-59
2022/06/04 03:12:51;;;;;;;12.57;6.40;;;10.90;99.90;;;;;;5094469;28;20058;-59
2022/06/04 03:15:17;;;;;;;13.18;6.90;;;10.90;99.90;;;;;;5093926;28;20462;-60
2022/06/04 03:17:45;;;;;;;9.82;6.18;;;10.90;99.90;;;;;;5077432;28;20047;-59
2022/06/04 03:20:13;;;;;;;11.60;7.30;;;10.90;99.90;;;;;;5112645;28;20049;-59
2022/06/04 03:22:39;;;;;;;12.80;6.68;;;11.00;99.90;;;;;;5112246;28;20053;-59
2022/06/04 03:25:05;;;;;;;12.07;6.97;;;11.00;99.90;;;;;;5094496;28;20040;-59
2022/06/04 03:27:32;;;;;;;9.40;6.57;;;11.00;99.90;;;;;;5093811;28;20052;-59
2022/06/04 03:29:58;;;;;;;12.60;7.05;;;11.00;99.90;;;;;;5112168;28;20549;-59
2022/06/04 03:32:23;;;;;;;13.30;7.30;;;11.00;99.90;;;;;;5112247;28;20126;-59
2022/06/04 03:34:49;;;;;;;10.95;7.10;;;11.00;99.90;;;;;;5094412;28;20067;-60
2022/06/04 03:37:16;;;;;;;13.25;7.47;;;11.00;99.90;;;;;;5112038;28;20052;-58
2022/06/04 03:39:42;;;;;;;14.40;6.93;;;11.00;99.90;;;;;;5112064;28;20044;-58
2022/06/04 03:42:08;;;;;;;13.32;6.82;;;10.90;99.90;;;;;;5077346;28;20272;-58
2022/06/04 03:44:34;;;;;;;10.25;6.82;;;10.90;99.90;;;;;;5093908;28;20118;-60
2022/06/04 03:46:59;;;;;;;9.77;6.15;;;10.80;99.90;;;;;;5093867;28;20040;-58
2022/06/04 03:49:25;;;;;;;12.25;6.68;;;10.80;99.90;;;;;;5093613;28;20078;-59
2022/06/04 03:51:51;;;;;;;11.50;5.93;;;10.80;99.90;;;;;;5077442;28;20039;-59
2022/06/04 03:54:17;;;;;;;9.90;6.43;;;10.80;99.90;;;;;;5112104;28;20044;-60
2022/06/04 03:57:37;;;;;;;10.45;6.10;;;10.80;99.90;;;;;;5111628;28;20040;-60
2022/06/04 03:59:28;;;;;;;11.10;6.47;;;10.80;99.90;;;;;;5111288;28;20126;-60
2022/06/04 04:01:54;;;;;;;10.35;6.20;;;10.80;99.90;;;;;;5112252;28;20079;-60
2022/06/04 04:04:20;;;;;;;9.57;5.40;;;10.80;99.90;;;;;;5111784;28;20397;-59
2022/06/04 04:06:45;;;;;;;8.05;4.95;;;10.90;99.90;;;;;;5093333;28;20073;-60
2022/06/04 04:09:11;;;;;;;7.72;5.30;;;10.90;99.90;;;;;;5076888;28;20382;-59
2022/06/04 04:11:37;;;;;;;14.48;5.60;;;10.90;99.90;;;;;;5093201;28;20052;-59
2022/06/04 04:14:03;;;;;;;7.25;4.90;;;10.90;99.90;;;;;;5093796;28;20515;-59
2022/06/04 04:16:29;;;;;;;9.52;5.32;;;10.90;99.90;;;;;;5110774;28;20047;-59
2022/06/04 04:18:54;;;;;;;9.50;4.68;;;10.90;99.90;;;;;;5093713;28;20396;-59
2022/06/04 04:21:22;;;;;;;10.00;5.20;;;10.90;99.90;;;;;;5093921;28;20435;-59
2022/06/04 04:23:48;;;;;;;7.78;4.32;;;11.00;99.90;;;;;;5076654;28;20127;-60
2022/06/04 04:26:14;;;;;;;7.55;4.82;;;11.00;99.90;;;;;;5111647;28;20094;-59
2022/06/04 04:28:40;;;;;;;10.00;5.07;;;11.00;99.90;;;;;;5111317;28;20120;-60
2022/06/04 04:31:26;;;;;;;10.02;5.10;;;11.10;99.90;;;;;;5111238;28;20090;-59
2022/06/04 04:33:52;;;;;;;7.63;5.38;;;11.20;99.90;;;;;;5093491;28;20048;-60
2022/06/04 04:36:18;;;;;;;7.75;5.07;;;11.30;99.90;;;;;;5111593;28;20047;-60
2022/06/04 04:38:44;;;;;;;8.35;5.07;;;11.50;99.90;;;;;;5111329;28;20493;-60
2022/06/04 04:41:14;;;;;;;7.13;4.47;;;11.50;99.90;;;;;;5093573;28;20047;-59
2022/06/04 04:43:41;;;;;;;8.52;4.93;;;11.70;99.90;;;;;;5111091;28;20047;-60
2022/06/04 04:46:09;;;;;;;5.55;4.35;;;12.00;99.90;;;;;;5093310;28;20092;-59
2022/06/04 04:48:35;;;;;;;7.00;4.25;;;12.50;99.90;;;;;;5111025;28;20079;-57
2022/06/04 04:51:01;;;;;;;6.88;4.35;;;13.40;99.90;;;;;;5111505;28;20053;-58
2022/06/04 04:53:27;;;;;;;7.72;4.45;;;14.10;99.90;;;;;;5093375;28;20044;-58
2022/06/04 04:55:53;;;;;;;7.60;4.45;;;14.90;99.90;;;;;;5093054;28;20388;-58
2022/06/04 04:58:19;;;;;;;7.88;4.07;;;15.60;99.90;;;;;;5111425;28;20066;-58
2022/06/04 05:00:45;;;;;;;6.85;4.38;;;16.20;99.90;;;;;;5111035;28;20047;-59
2022/06/04 05:03:11;;;;;;;8.35;4.03;;;16.80;99.90;;;;;;5111351;28;20048;-60
2022/06/04 05:05:37;;;;;;;6.35;3.83;;;17.20;99.90;;;;;;5110804;28;20074;-59
2022/06/04 05:08:03;;;;;;;6.43;3.92;;;17.70;99.90;;;;;;5111039;28;20122;-59
2022/06/04 05:10:29;;;;;;;8.70;3.88;;;18.10;99.90;;;;;;5110949;28;20480;-59
2022/06/04 05:12:56;;;;;;;7.55;3.55;;;18.40;99.90;;;;;;5111004;28;20084;-59
2022/06/04 05:15:22;;;;;;;5.50;3.65;;;18.40;99.90;;;;;;5111272;28;20051;-59
2022/06/04 05:17:49;;;;;;;6.43;3.20;;;18.80;99.90;;;;;;5092940;28;20052;-59
2022/06/04 05:20:15;;;;;;;7.07;3.33;;;19.30;99.90;;;;;;5093301;28;20048;-59
2022/06/04 05:22:41;;;;;;;4.68;3.33;;;19.70;99.90;;;;;;5092603;28;20056;-59
2022/06/04 05:25:08;;;;;;;4.55;2.70;;;19.80;99.90;;;;;;5110805;28;20134;-59
2022/06/04 05:27:34;;;;;;;5.80;2.83;;;20.20;99.90;;;;;;5111098;28;20356;-60
2022/06/04 05:30:00;;;;;;;7.53;3.75;;;20.30;99.90;;;;;;5114787;28;20122;-59
2022/06/04 05:32:26;;;;;;;7.70;3.35;;;20.50;99.90;;;;;;5114732;28;20043;-59
2022/06/04 05:34:51;;;;;;;4.82;2.78;;;20.70;99.90;;;;;;5114418;28;20043;-59
2022/06/04 05:37:17;;;;;;;5.75;3.00;;;21.20;99.90;;;;;;5096961;28;20058;-59
2022/06/04 05:39:43;;;;;;;5.03;2.67;;;21.50;99.90;;;;;;5114537;28;20044;-60
2022/06/04 05:42:10;;;;;;;5.70;2.92;;;21.70;99.90;;;;;;5114732;28;20126;-59
2022/06/04 05:44:36;;;;;;;4.45;3.10;;;21.90;98.00;;;;;;5114688;28;20039;-61
2022/06/04 05:47:04;;;;;;;6.32;3.05;;;21.90;97.50;;;;;;5096111;28;20081;-59
2022/06/04 05:49:30;;;;;;;4.55;3.00;;;21.60;97.30;;;;;;5114547;28;20073;-59
2022/06/04 05:51:56;;;;;;;4.35;3.00;;;21.70;98.50;;;;;;5113575;28;20069;-59
2022/06/04 05:54:22;;;;;;;4.32;2.75;;;21.80;96.70;;;;;;5114338;28;20047;-59
2022/06/04 05:56:49;;;;;;;4.75;3.03;;;21.60;96.80;;;;;;5095705;28;20685;-59
2022/06/04 05:59:18;;;;;;;5.07;2.95;;;21.90;97.60;;;;;;5096409;28;20052;-58
2022/06/04 06:01:45;;;;;;;4.78;3.00;;;21.80;97.20;;;;;;5095962;28;20132;-58
2022/06/04 06:04:12;;;;;;;8.85;2.92;;;22.40;97.80;;;;;;5096139;28;20062;-58
2022/06/04 06:06:41;;;;;;;5.05;2.70;;;22.80;98.10;;;;;;5114036;28;20168;-59
2022/06/04 06:09:12;;;;;;;4.50;2.97;;;23.10;95.70;;;;;;5114132;28;20043;-58
2022/06/04 06:11:39;;;;;;;4.68;2.78;;;23.40;94.50;;;;;;5113445;28;20059;-58
2022/06/04 06:14:07;;;;;;;6.55;3.13;;;23.20;94.90;;;;;;5095799;28;20051;-59
2022/06/04 06:16:35;;;;;;;5.40;3.00;;;22.10;95.30;;;;;;5113945;28;20131;-59
2022/06/04 06:19:00;;;;;;;4.38;2.90;;;21.90;95.30;;;;;;5113529;28;20056;-58
2022/06/04 06:21:31;;;;;;;4.13;2.80;;;22.30;96.60;;;;;;5114080;28;20050;-58
2022/06/04 06:23:57;;;;;;;5.25;3.10;;;22.30;95.10;;;;;;5113411;28;20048;-58
2022/06/04 06:26:27;;;;;;;6.35;2.63;;;22.60;95.60;;;;;;5113759;28;20382;-58
2022/06/04 06:28:53;;;;;;;6.25;2.80;;;22.10;95.40;;;;;;5094897;28;20047;-59
2022/06/04 06:31:23;;;;;;;5.78;3.05;;;21.50;95.60;;;;;;5113831;28;20040;-58
2022/06/04 06:33:49;;;;;;;5.45;3.08;;;21.60;95.40;;;;;;5113479;28;20043;-58
2022/06/04 06:36:17;;;;;;;4.93;3.17;;;20.90;96.00;;;;;;5095604;28;20043;-58
2022/06/04 06:38:45;;;;;;;5.55;3.00;;;21.20;95.90;;;;;;5113699;28;20043;-60
2022/06/04 06:41:13;;;;;;;5.18;2.88;;;21.40;95.90;;;;;;5112470;28;20047;-60
2022/06/04 06:43:52;;;;;;;6.70;3.45;;;21.30;96.10;;;;;;5113393;28;20044;-58
2022/06/04 06:46:24;;;;;;;6.88;3.30;;;21.00;96.00;;;;;;5113697;28;20118;-59
2022/06/04 06:48:56;;;;;;;6.13;3.00;;;21.90;95.90;;;;;;5094904;28;20043;-59
2022/06/04 06:51:25;;;;;;;5.35;3.28;;;22.50;95.30;;;;;;5113525;28;20044;-59
2022/06/04 06:53:54;;;;;;;6.85;3.08;;;22.10;95.00;;;;;;5094913;28;20099;-59
2022/06/04 06:56:24;;;;;;;5.80;2.85;;;21.60;95.20;;;;;;5113395;28;20047;-59
2022/06/04 06:58:50;;;;;;;6.60;2.97;;;21.30;95.80;;;;;;5094235;28;20097;-60
2022/06/04 07:01:16;;;;;;;4.95;2.50;;;20.80;95.70;;;;;;5078304;28;20078;-58
2022/06/04 07:03:43;;;;;;;4.88;2.88;;;20.50;96.40;;;;;;5095222;28;20055;-59
2022/06/04 07:06:12;;;;;;;4.68;3.00;;;20.20;97.00;;;;;;5077626;28;20326;-58
2022/06/04 07:08:39;;;;;;;5.55;3.10;;;20.30;96.90;;;;;;5113012;28;20043;-58
2022/06/04 07:11:05;;;;;;;4.38;3.08;;;20.20;97.10;;;;;;5112310;28;20052;-58
2022/06/04 07:13:31;;;;;;;5.85;2.90;;;20.10;97.20;;;;;;5113155;28;20137;-59
2022/06/04 07:15:58;;;;;;;4.82;3.05;;;20.10;96.90;;;;;;5094001;28;20131;-59
2022/06/04 07:18:24;;;;;;;7.28;2.97;;;20.70;97.40;;;;;;5094802;28;20042;-59
2022/06/04 07:20:50;;;;;;;6.13;3.05;;;21.90;96.90;;;;;;5112702;28;20040;-61
2022/06/04 07:23:16;;;;;;;5.18;2.70;;;22.50;96.10;;;;;;5112733;28;20047;-59
2022/06/04 07:25:44;;;;;;;3.60;2.45;;;23.40;94.30;;;;;;5112799;28;20055;-59
2022/06/04 07:28:12;;;;;;;4.90;2.63;;;24.30;94.50;;;;;;5093884;28;20036;-60
2022/06/04 07:30:38;;;;;;;5.65;2.45;;;24.40;91.80;;;;;;5110672;28;20204;-60
2022/06/04 07:33:04;;;;;;;3.45;2.40;;;24.40;92.00;;;;;;5111413;28;20047;-60
2022/06/04 07:35:31;;;;;;;3.75;2.45;;;24.60;92.20;;;;;;5109362;28;20050;-60
2022/06/04 07:37:56;;;;;;;4.13;2.42;;;24.70;91.10;;;;;;5093953;28;20052;-61
2022/06/04 07:40:22;;;;;;;4.53;2.30;;;24.80;90.70;;;;;;5094139;28;20047;-60
2022/06/04 07:42:48;;;;;;;4.32;2.30;;;25.00;91.20;;;;;;5111870;28;20073;-60
2022/06/04 07:45:14;;;;;;;5.75;2.65;;;24.90;91.00;;;;;;5111847;28;20504;-60
2022/06/04 07:47:41;;;;;;;3.70;2.33;;;25.00;90.50;;;;;;5076966;28;20052;-59
2022/06/04 07:50:11;;;;;;;2.85;2.00;;;24.60;90.20;;;;;;5111863;28;20117;-59
2022/06/04 07:52:37;;;;;;;4.55;2.22;;;24.70;90.60;;;;;;5111937;28;20126;-59
2022/06/04 07:55:07;;;;;;;3.75;2.25;;;25.20;90.50;;;;;;5076299;28;20150;-60
2022/06/04 07:57:37;;;;;;;3.55;2.30;;;25.90;90.40;;;;;;5094096;28;20467;-59
2022/06/04 08:00:05;;;;;;;5.38;2.40;;;25.80;88.60;;;;;;5093847;28;20047;-60
2022/06/04 08:02:31;;;;;;;5.00;2.08;;;25.60;87.90;;;;;;5093572;28;20058;-58
2022/06/04 08:04:57;;;;;;;4.57;2.45;;;25.60;86.70;;;;;;5093656;28;20051;-60
2022/06/04 08:07:24;;;;;;;4.38;2.20;;;25.50;86.60;;;;;;5112052;28;20043;-58
2022/06/04 08:09:50;;;;;;;3.95;2.35;;;26.10;86.60;;;;;;5112017;28;20114;-58
2022/06/04 08:12:17;;;;;;;4.28;2.20;;;25.70;87.10;;;;;;5092824;28;20060;-59
2022/06/04 08:14:44;;;;;;;4.50;2.40;;;25.70;86.70;;;;;;5093764;28;20050;-60
2022/06/04 08:17:10;;;;;;;5.50;2.60;;;25.90;86.10;;;;;;5093087;28;20093;-59
2022/06/04 08:19:39;;;;;;;3.90;2.05;;;26.40;85.60;;;;;;5093168;28;20493;-60
2022/06/04 08:22:06;;;;;;;3.65;2.00;;;26.40;85.10;;;;;;5110983;28;20043;-58
2022/06/04 08:24:32;;;;;;;5.65;2.65;;;26.60;83.90;;;;;;5111425;28;20048;-59
2022/06/04 08:27:00;;;;;;;5.38;2.33;;;26.40;83.60;;;;;;5093371;28;20048;-61
2022/06/04 08:29:32;;;;;;;4.95;2.25;;;26.30;83.80;;;;;;5111509;28;20044;-60
2022/06/04 08:32:00;;;;;;;3.92;2.17;;;26.30;83.70;;;;;;5093135;28;20408;-59
2022/06/04 08:34:25;;;;;;;4.43;2.30;;;26.50;83.10;;;;;;5111244;28;20047;-60
2022/06/04 08:36:51;;;;;;;4.00;2.38;;;26.50;82.50;;;;;;5111682;28;20109;-60
2022/06/04 08:39:18;;;;;;;5.28;2.25;;;26.60;83.50;;;;;;5111240;28;20046;-60
2022/06/04 08:41:56;;;;;;;4.93;2.25;;;26.40;83.70;;;;;;5111459;28;20147;-60
2022/06/04 08:44:34;;;;;;;3.30;2.10;;;26.50;82.60;;;;;;5111044;28;20055;-60
2022/06/04 08:47:46;;;;;;;4.10;2.20;;;26.40;81.90;;;;;;5111500;28;20100;-59
2022/06/04 08:50:20;;;;;;;4.30;2.13;;;26.60;82.70;;;;;;4991767;28;20674;-58
2022/06/04 08:52:58;;;;;;;5.13;2.60;;;26.70;82.80;;;;;;5103270;28;20483;-59
2022/06/04 08:59:01;;;;;;;4.40;2.25;;;26.70;82.40;;;;;;5111234;28;20051;-60
2022/06/04 09:01:35;;;;;;;4.60;2.05;;;26.70;81.80;;;;;;5110677;28;20139;-60
2022/06/04 09:04:15;;;;;;;3.67;2.03;;;26.40;79.90;;;;;;5113461;28;20051;-60
2022/06/04 09:06:55;;;;;;;4.35;2.20;;;26.60;81.00;;;;;;5115206;28;20369;-59
2022/06/04 09:09:32;;;;;;;3.72;2.13;;;26.30;80.90;;;;;;5096389;28;20039;-59
2022/06/04 09:12:07;;;;;;;4.85;1.90;;;26.50;80.40;;;;;;5079492;28;20119;-58
2022/06/04 09:15:17;;;;;;;3.40;2.03;;;26.40;80.40;;;;;;5096949;28;20156;-58
2022/06/04 09:17:50;;;;;;;3.97;2.20;;;26.10;80.20;;;;;;5079886;28;20104;-58
2022/06/04 09:20:31;;;;;;;5.05;2.30;;;25.90;81.00;;;;;;5096812;28;20055;-58
2022/06/04 09:23:12;;;;;;;3.50;2.17;;;25.40;81.20;;;;;;5096778;28;20035;-58
2022/06/04 09:25:49;;;;;;;3.97;2.28;;;25.30;81.90;;;;;;5114827;28;20495;-58
2022/06/04 09:29:02;;;;;;;5.13;2.30;;;25.10;82.10;;;;;;5096860;28;20047;-58
2022/06/04 09:31:52;;;;;;;4.78;2.10;;;25.10;82.20;;;;;;5036356;28;20109;-59
2022/06/04 09:34:23;;;;;;;4.75;2.40;;;24.60;83.90;;;;;;5114543;28;20043;-59
2022/06/04 09:36:50;;;;;;;4.55;2.50;;;24.90;84.50;;;;;;5080136;28;20050;-58
2022/06/04 09:39:21;;;;;;;4.28;2.30;;;25.20;82.50;;;;;;5096463;28;20078;-57
2022/06/04 09:41:50;;;;;;;5.60;2.30;;;25.40;82.30;;;;;;5114909;28;20050;-58
2022/06/04 09:44:16;;;;;;;3.92;1.90;;;25.40;82.80;;;;;;5096230;28;20130;-58
2022/06/04 09:46:44;;;;;;;6.53;2.38;;;25.40;81.50;;;;;;5079650;28;20173;-58
2022/06/04 09:49:49;;;;;;;4.90;2.20;;;25.10;81.30;;;;;;5114537;28;20083;-60
2022/06/04 09:52:35;;;;;;;4.20;2.13;;;24.70;81.40;;;;;;5112288;28;20055;-57
2022/06/04 09:55:28;;;;;;;4.43;2.20;;;24.80;82.10;;;;;;5096515;28;20064;-60
2022/06/04 09:58:21;;;;;;;4.03;2.20;;;24.20;81.50;;;;;;5092007;28;20057;-58
2022/06/04 10:01:09;;;;;;;4.50;2.78;;;23.70;83.80;;;;;;5114569;28;20086;-58
2022/06/04 10:03:37;;;;;;;5.30;2.70;;;23.10;85.90;;;;;;5113946;28;20048;-58
2022/06/04 10:06:15;;;;;;;5.97;2.42;;;23.00;87.40;;;;;;5095885;28;20056;-58
2022/06/04 10:11:48;;;;;;;4.75;2.35;;;22.60;87.50;;;;;;5095603;28;20051;-59
2022/06/04 10:14:15;;;;;;;6.13;2.22;;;22.30;87.00;;;;;;5096014;28;20164;-61
2022/06/04 10:16:44;;;;;;;3.65;2.22;;;21.90;87.60;;;;;;5079504;28;20051;-58
2022/06/04 10:19:17;;;;;;;3.53;2.25;;;22.10;88.30;;;;;;5096253;28;20105;-59
2022/06/04 10:21:46;;;;;;;5.43;2.70;;;22.10;89.40;;;;;;5095952;28;20492;-58
2022/06/04 10:24:24;;;;;;;4.80;2.67;;;21.90;88.50;;;;;;5114095;28;20039;-58
2022/06/04 10:26:57;;;;;;;4.53;2.85;;;21.90;90.20;;;;;;5114024;28;20090;-58
2022/06/04 10:29:28;;;;;;;5.65;2.85;;;21.80;90.10;;;;;;5095506;28;20050;-58
2022/06/04 10:32:20;;;;;;;4.55;2.78;;;21.50;90.20;;;;;;5113958;28;20720;-58
2022/06/04 10:34:49;;;;;;;6.00;3.03;;;21.20;90.50;;;;;;5095771;28;20090;-60
2022/06/04 10:37:39;;;;;;;5.88;2.70;;;20.90;91.30;;;;;;5095584;28;20477;-58
2022/06/04 10:40:13;;;;;;;4.25;3.00;;;21.00;91.40;;;;;;5095610;28;20059;-56
2022/06/04 10:42:52;;;;;;;4.30;2.90;;;21.00;91.10;;;;;;5095011;28;20051;-58
2022/06/04 10:45:35;;;;;;;5.32;2.90;;;20.90;91.30;;;;;;5095562;28;20051;-60
2022/06/04 10:48:08;;;;;;;5.50;2.88;;;21.00;91.60;;;;;;5113634;28;20382;-59
2022/06/04 10:53:53;;;;;;;5.25;2.88;;;21.10;90.80;;;;;;5094942;28;20416;-59
2022/06/04 10:56:37;;;;;;;4.45;2.65;;;20.90;91.30;;;;;;5113444;28;20078;-60
2022/06/04 10:59:08;;;;;;;5.07;3.08;;;21.00;91.50;;;;;;5113368;28;20044;-58
2022/06/04 11:01:51;;;;;;;7.70;3.35;;;20.80;91.60;;;;;;5113168;28;20044;-58
2022/06/04 11:04:29;;;;;;;6.32;2.72;;;20.70;91.70;;;;;;5078481;28;20051;-59
2022/06/04 11:06:59;;;;;;;5.80;2.95;;;20.80;92.10;;;;;;5112594;28;20154;-58
2022/06/04 11:09:41;;;;;;;4.15;2.50;;;20.90;92.00;;;;;;5112564;28;20042;-60
2022/06/04 11:12:30;;;;;;;4.68;2.63;;;21.10;92.10;;;;;;5094335;28;20060;-60
2022/06/04 11:15:03;;;;;;;5.50;2.88;;;21.20;91.60;;;;;;5094539;28;20096;-59
2022/06/04 11:17:49;;;;;;;6.90;2.80;;;21.20;91.60;;;;;;5094413;28;20388;-58
2022/06/04 11:20:20;;;;;;;3.72;2.60;;;21.10;91.70;;;;;;5112974;28;20128;-59
2022/06/04 11:22:59;;;;;;;5.93;2.95;;;21.00;91.60;;;;;;5077774;28;20097;-60
2022/06/04 11:25:28;;;;;;;6.47;3.00;;;20.70;92.10;;;;;;5077134;28;20059;-61
2022/06/04 11:28:04;;;;;;;4.72;2.65;;;20.70;92.10;;;;;;5077396;28;20090;-59
2022/06/04 11:31:05;;;;;;;4.85;3.00;;;20.70;92.00;;;;;;5077506;28;20535;-59
2022/06/04 11:34:05;;;;;;;7.88;3.20;;;20.60;92.20;;;;;;5111849;28;20555;-60
2022/06/04 11:36:44;;;;;;;7.00;3.00;;;20.60;92.80;;;;;;5112148;28;20048;-60
2022/06/04 11:39:22;;;;;;;8.98;3.03;;;20.60;92.80;;;;;;5094524;28;20055;-60
2022/06/04 11:42:13;;;;;;;6.32;3.13;;;20.50;92.90;;;;;;5094075;28;20048;-60
2022/06/04 11:44:48;;;;;;;7.43;3.10;;;20.50;92.70;;;;;;5094205;28;20044;-60
2022/06/04 11:47:46;;;;;;;6.00;3.10;;;20.60;93.00;;;;;;5094308;28;20396;-60
2022/06/04 11:50:39;;;;;;;5.85;3.17;;;20.60;92.90;;;;;;5093761;28;20043;-60
2022/06/04 11:53:51;;;;;;;7.28;3.33;;;20.50;93.20;;;;;;5093446;28;20047;-61
2022/06/04 11:56:49;;;;;;;7.55;3.53;;;20.60;93.70;;;;;;5071308;28;20147;-60
2022/06/04 11:59:47;;;;;;;6.80;3.42;;;20.80;93.40;;;;;;5093441;28;20093;-61
2022/06/04 12:02:18;;;;;;;7.07;3.20;;;20.90;92.90;;;;;;5054992;28;20047;-61
2022/06/04 12:05:08;;;;;;;7.40;3.30;;;20.60;93.30;;;;;;5111300;28;20047;-61
2022/06/04 12:07:42;;;;;;;7.07;3.47;;;20.50;93.80;;;;;;5093105;28;20083;-61
2022/06/04 12:10:08;;;;;;;6.03;3.65;;;20.40;93.80;;;;;;5093339;28;20070;-61
2022/06/04 12:12:48;;;;;;;8.90;3.55;;;20.40;93.50;;;;;;5089336;28;20052;-60
2022/06/04 12:15:49;;;;;;;6.05;3.20;;;20.50;93.60;;;;;;5090518;28;20081;-61
2022/06/04 12:18:27;;;;;;;6.70;3.38;;;20.50;94.30;;;;;;5079826;28;20056;-60
2022/06/04 12:26:40;;;;;;;9.85;3.40;;;20.40;93.80;;;;;;5091277;28;20395;-62
2022/06/04 12:29:44;;;;;;;6.95;3.17;;;20.40;93.80;;;;;;5088723;28;20474;-60
2022/06/04 12:32:29;;;;;;;;;;;20.30;93.80;;;;;;5091933;28;20480;-60
2022/06/04 12:35:10;;;;;;;6.40;3.42;;;20.40;94.20;;;;;;5090091;28;19924;-59
2022/06/04 12:37:41;;;;;;;7.28;3.40;;;20.40;94.20;;;;;;5089039;28;20048;-61
2022/06/04 12:40:19;;;;;;;7.78;3.80;;;20.40;93.70;;;;;;5091204;28;20123;-61
2022/06/04 12:43:19;;;;;;;5.57;3.15;;;20.30;94.20;;;;;;5072498;28;20154;-61
2022/06/04 12:45:51;;;;;;;8.15;4.10;;;20.20;94.00;;;;;;5089781;28;20044;-60
2022/06/04 12:48:28;;;;;;;8.40;3.40;;;20.10;94.10;;;;;;5089436;28;20052;-60
2022/06/04 12:51:14;;;;;;;8.35;3.80;;;20.00;94.90;;;;;;5090913;28;20120;-59
2022/06/04 12:54:01;;;;;;;5.95;3.42;;;20.00;94.50;;;;;;5090091;28;20100;-60
2022/06/04 12:56:40;;;;;;;7.28;3.38;;;19.90;94.80;;;;;;5091500;28;20055;-59
2022/06/04 12:59:36;;;;;;;7.78;3.50;;;19.80;95.30;;;;;;5091003;28;20040;-60
2022/06/04 13:02:02;;;;;;;9.10;3.63;;;19.80;94.70;;;;;;5090601;28;20109;-60
2022/06/04 13:04:38;;;;;;;5.90;3.10;;;19.70;95.00;;;;;;5089215;28;20116;-60
2022/06/04 13:07:25;;;;;;;7.63;3.47;;;19.70;95.40;;;;;;5090603;28;20544;-60
2022/06/04 13:10:03;;;;;;;9.10;3.85;;;19.80;95.50;;;;;;5090592;28;20101;-60
2022/06/04 13:12:33;;;;;;;5.82;3.60;;;19.70;95.30;;;;;;5106317;28;20525;-60
2022/06/04 13:15:26;;;;;;;5.70;3.30;;;19.70;95.30;;;;;;5111249;28;20109;-60
2022/06/04 13:17:52;;;;;;;6.75;3.20;;;19.70;95.60;;;;;;5076125;28;20066;-59
2022/06/04 13:20:33;;;;;;;8.85;3.40;;;19.80;95.60;;;;;;5111377;28;20048;-59
2022/06/04 13:23:26;;;;;;;6.53;3.28;;;19.90;95.20;;;;;;5110873;28;20500;-59
2022/06/04 13:26:25;;;;;;;9.55;3.60;;;19.80;95.60;;;;;;5092955;28;20055;-59
2022/06/04 13:28:51;;;;;;;8.10;3.65;;;19.80;95.40;;;;;;5110849;28;20043;-60
2022/06/04 13:31:21;;;;;;;8.00;3.90;;;19.70;96.00;;;;;;5076681;28;20057;-58
2022/06/04 13:33:47;;;;;;;9.27;3.45;;;19.50;95.70;;;;;;5111038;28;20508;-60
2022/06/04 13:36:18;;;;;;;10.50;3.88;;;19.50;95.80;;;;;;5110869;28;20545;-59
2022/06/04 13:38:46;;;;;;;5.80;3.42;;;19.60;96.10;;;;;;5092876;28;20047;-60
2022/06/04 13:44:15;;;;;;;8.77;3.42;;;19.70;95.90;;;;;;5111297;28;20056;-58